createdAt,value
2022-09-07T00:01:08.612Z,12.20
2022-09-07T00:03:36.671Z,14.30
2022-09-07T00:06:12.520Z,13.07
2022-09-07T00:08:41.013Z,10.93
2022-09-07T00:11:15.839Z,10.43
2022-09-07T00:13:45.737Z,11.30
2022-09-07T00:16:19.219Z,11.55
2022-09-07T00:18:46.720Z,14.75
2022-09-07T00:21:16.363Z,16.55
2022-09-07T00:23:46.128Z,11.27
2022-09-07T00:26:16.135Z,11.77
2022-09-07T00:28:45.816Z,11.52
2022-09-07T00:31:19.656Z,15.38
2022-09-07T00:33:49.123Z,11.80
2022-09-07T00:36:17.493Z,11.38
2022-09-07T00:38:44.901Z,14.52
2022-09-07T00:41:12.099Z,10.75
2022-09-07T00:43:42.055Z,10.98
2022-09-07T00:46:38.585Z,12.35
2022-09-07T00:49:08.870Z,16.92
2022-09-07T00:51:53.121Z,12.43
2022-09-07T00:54:34.320Z,12.60
2022-09-07T00:57:01.664Z,12.48
2022-09-07T00:59:40.023Z,11.23
2022-09-07T01:02:08.395Z,11.98
2022-09-07T01:04:36.489Z,15.43
2022-09-07T01:07:06.422Z,17.35
2022-09-07T01:09:33.546Z,14.35
2022-09-07T01:12:02.195Z,15.45
2022-09-07T01:14:40.362Z,15.88
2022-09-07T01:17:13.245Z,17.10
2022-09-07T01:20:12.335Z,18.98
2022-09-07T01:22:45.581Z,17.70
2022-09-07T01:25:18.884Z,19.00
2022-09-07T01:28:22.894Z,18.70
2022-09-07T01:31:10.301Z,16.38
2022-09-07T01:33:46.599Z,16.33
2022-09-07T01:36:17.884Z,13.48
2022-09-07T01:39:08.318Z,17.63
2022-09-07T01:41:52.017Z,15.20
2022-09-07T01:44:28.654Z,17.00
2022-09-07T01:47:09.778Z,17.52
2022-09-07T01:49:42.186Z,13.98
2022-09-07T01:52:41.141Z,15.57
2022-09-07T01:55:18.838Z,17.88
2022-09-07T01:57:54.780Z,14.40
2022-09-07T02:00:23.230Z,17.10
2022-09-07T02:03:04.674Z,16.92
2022-09-07T02:05:43.141Z,20.80
2022-09-07T02:08:18.964Z,14.98
2022-09-07T02:10:52.423Z,15.30
2022-09-07T02:13:28.313Z,16.75
2022-09-07T02:16:11.184Z,14.80
2022-09-07T02:18:44.587Z,16.27
2022-09-07T02:21:15.592Z,17.30
2022-09-07T02:24:07.897Z,15.10
2022-09-07T02:26:38.812Z,15.18
2022-09-07T02:29:08.575Z,14.77
2022-09-07T02:31:35.635Z,13.20
2022-09-07T02:34:03.349Z,13.98
2022-09-07T02:36:35.528Z,14.00
2022-09-07T02:39:02.611Z,18.92
2022-09-07T02:41:31.932Z,15.48
2022-09-07T02:44:00.095Z,15.68
2022-09-07T02:47:04.669Z,15.38
2022-09-07T02:49:44.196Z,12.82
2022-09-07T02:52:46.780Z,16.33
2022-09-07T02:55:40.963Z,14.70
2022-09-07T02:58:32.707Z,15.27
2022-09-07T03:01:33.397Z,17.88
2022-09-07T03:04:20.725Z,14.15
2022-09-07T03:07:13.541Z,16.98
2022-09-07T03:09:49.619Z,15.70
2022-09-07T03:12:17.418Z,14.45
2022-09-07T03:14:45.326Z,16.63
2022-09-07T03:17:13.987Z,15.02
2022-09-07T03:19:41.323Z,15.65
2022-09-07T03:22:08.481Z,14.73
2022-09-07T03:24:36.819Z,16.75
2022-09-07T03:27:04.094Z,18.60
2022-09-07T03:29:31.162Z,16.00
2022-09-07T03:31:58.119Z,16.50
2022-09-07T03:34:25.404Z,17.88
2022-09-07T03:36:52.506Z,16.83
2022-09-07T03:39:23.943Z,13.93
2022-09-07T03:41:51.253Z,14.90
2022-09-07T03:44:18.492Z,15.95
2022-09-07T03:46:45.651Z,15.60
2022-09-07T03:49:15.330Z,14.82
2022-09-07T03:51:42.287Z,15.50
2022-09-07T03:54:09.269Z,13.70
2022-09-07T03:56:36.510Z,16.65
2022-09-07T03:59:03.700Z,15.35
2022-09-07T04:01:30.800Z,13.73
2022-09-07T04:04:02.110Z,18.55
2022-09-07T04:06:30.751Z,16.92
2022-09-07T04:09:02.019Z,14.20
2022-09-07T04:11:29.190Z,17.20
2022-09-07T04:13:56.139Z,18.67
2022-09-07T04:16:25.280Z,14.43
2022-09-07T04:18:57.991Z,18.10
2022-09-07T04:21:27.096Z,15.63
2022-09-07T04:23:54.446Z,17.70
2022-09-07T04:26:24.367Z,16.42
2022-09-07T04:28:52.175Z,15.63
2022-09-07T04:31:20.704Z,15.75
2022-09-07T04:33:49.254Z,16.00
2022-09-07T04:36:18.078Z,16.73
2022-09-07T04:38:53.383Z,14.77
2022-09-07T04:41:25.167Z,18.50
2022-09-07T04:43:55.226Z,14.60
2022-09-07T04:46:25.601Z,14.05
2022-09-07T04:48:55.224Z,16.50
2022-09-07T04:51:25.147Z,14.57
2022-09-07T04:53:55.891Z,16.05
2022-09-07T04:56:23.941Z,15.40
2022-09-07T04:58:51.676Z,14.50
2022-09-07T05:01:21.520Z,15.05
2022-09-07T05:03:49.923Z,16.60
2022-09-07T05:06:19.187Z,15.25
2022-09-07T05:08:49.736Z,15.50
2022-09-07T05:11:18.450Z,14.98
2022-09-07T05:13:45.809Z,17.25
2022-09-07T05:16:15.609Z,16.45
2022-09-07T05:18:42.942Z,12.38
2022-09-07T05:21:12.093Z,15.15
2022-09-07T05:23:39.770Z,16.77
2022-09-07T05:26:07.068Z,14.30
2022-09-07T05:28:35.294Z,13.82
2022-09-07T05:31:18.603Z,14.70
2022-09-07T05:36:44.711Z,22.02
2022-09-07T05:39:12.076Z,29.48
2022-09-07T05:41:39.175Z,21.35
2022-09-07T05:46:54.372Z,17.83
2022-09-07T05:49:21.406Z,16.67
2022-09-07T05:51:48.845Z,16.55
2022-09-07T05:54:15.990Z,14.73
2022-09-07T05:56:43.963Z,12.90
2022-09-07T05:59:13.525Z,11.88
2022-09-07T06:01:40.838Z,15.82
2022-09-07T06:04:08.842Z,13.45
2022-09-07T06:06:40.676Z,16.73
2022-09-07T06:09:11.482Z,16.05
2022-09-07T06:11:41.063Z,14.55
2022-09-07T06:14:08.304Z,14.82
2022-09-07T06:16:35.728Z,16.30
2022-09-07T06:19:08.726Z,16.83
2022-09-07T06:21:39.591Z,16.10
2022-09-07T06:24:06.959Z,10.93
2022-09-07T06:26:34.322Z,11.13
2022-09-07T06:29:02.719Z,11.73
2022-09-07T06:31:30.150Z,12.93
2022-09-07T06:33:57.546Z,16.02
2022-09-07T06:36:27.876Z,11.80
2022-09-07T06:38:59.076Z,10.55
2022-09-07T06:44:25.347Z,11.65
2022-09-07T06:47:07.747Z,16.10
2022-09-07T06:49:35.125Z,12.70
2022-09-07T06:52:03.396Z,10.10
2022-09-07T06:57:23.097Z,8.02
2022-09-07T06:59:55.441Z,7.15
2022-09-07T07:02:22.706Z,8.52
2022-09-07T07:04:50.210Z,9.60
2022-09-07T07:07:17.454Z,7.63
2022-09-07T07:09:47.062Z,7.45
2022-09-07T07:12:14.108Z,9.45
2022-09-07T07:14:44.896Z,9.73
2022-09-07T07:17:13.037Z,9.98
2022-09-07T07:19:40.151Z,8.70
2022-09-07T07:22:29.139Z,10.48
2022-09-07T07:24:56.662Z,5.28
2022-09-07T07:27:23.977Z,5.07
2022-09-07T07:29:52.524Z,6.82
2022-09-07T07:32:19.869Z,7.95
2022-09-07T07:34:46.925Z,13.50
2022-09-07T07:37:15.109Z,17.98
2022-09-07T07:42:30.507Z,10.55
2022-09-07T07:47:53.504Z,15.38
2022-09-07T07:50:35.990Z,11.73
2022-09-07T07:55:50.944Z,16.33
2022-09-07T07:58:18.565Z,24.70
2022-09-07T08:00:55.458Z,13.07
2022-09-07T08:03:24.191Z,32.95
2022-09-07T08:05:53.601Z,7.32
2022-09-07T08:08:24.166Z,12.27
2022-09-07T08:10:52.211Z,8.55
2022-09-07T08:13:19.350Z,7.75
2022-09-07T08:15:48.458Z,7.28
2022-09-07T08:18:19.106Z,23.30
2022-09-07T08:20:46.665Z,9.95
2022-09-07T08:23:14.773Z,8.55
2022-09-07T08:25:52.845Z,10.73
2022-09-07T08:28:23.825Z,7.75
2022-09-07T08:30:51.049Z,7.07
2022-09-07T08:33:18.255Z,7.65
2022-09-07T08:36:02.887Z,9.30
2022-09-07T08:38:32.098Z,7.68
2022-09-07T08:41:00.097Z,11.82
2022-09-07T08:43:49.275Z,9.63
2022-09-07T08:46:42.574Z,10.32
2022-09-07T08:49:40.609Z,8.27
2022-09-07T08:52:48.396Z,6.28
2022-09-07T08:55:21.999Z,10.98
2022-09-07T08:57:57.270Z,9.70
2022-09-07T09:00:24.292Z,9.27
2022-09-07T09:06:05.241Z,7.18
2022-09-07T09:09:03.731Z,17.40
2022-09-07T09:11:49.649Z,15.43
2022-09-07T09:14:23.281Z,7.50
2022-09-07T09:16:57.221Z,9.75
2022-09-07T09:19:39.848Z,10.77
2022-09-07T09:22:13.759Z,8.13
2022-09-07T09:25:07.612Z,12.85
2022-09-07T09:27:34.602Z,11.85
2022-09-07T09:30:18.708Z,10.43
2022-09-07T09:32:48.543Z,8.07
2022-09-07T09:35:34.518Z,10.90
2022-09-07T09:38:04.113Z,10.32
2022-09-07T09:40:34.063Z,8.40
2022-09-07T09:43:03.795Z,8.25
2022-09-07T09:48:36.881Z,6.47
2022-09-07T09:54:07.938Z,7.18
2022-09-07T09:56:40.926Z,11.10
2022-09-07T10:05:29.534Z,12.82
2022-09-07T10:07:57.160Z,8.38
2022-09-07T10:10:26.510Z,9.55
2022-09-07T10:12:55.251Z,10.05
2022-09-07T10:15:41.722Z,8.05
2022-09-07T10:18:21.454Z,7.95
2022-09-07T10:20:49.009Z,5.60
2022-09-07T10:23:23.940Z,6.82
2022-09-07T10:25:53.697Z,7.07
2022-09-07T10:28:23.935Z,5.35
2022-09-07T10:31:14.726Z,8.18
2022-09-07T10:34:26.154Z,6.50
2022-09-07T10:37:03.031Z,6.75
2022-09-07T10:39:37.253Z,6.90
2022-09-07T10:42:29.367Z,5.85
2022-09-07T10:45:08.599Z,8.02
2022-09-07T10:47:53.241Z,8.98
2022-09-07T10:50:47.866Z,11.35
2022-09-07T10:53:42.299Z,9.95
2022-09-07T10:56:21.034Z,7.22
2022-09-07T10:59:06.454Z,7.57
2022-09-07T11:01:48.862Z,9.82
2022-09-07T11:04:18.734Z,8.38
2022-09-07T11:06:52.207Z,9.20
2022-09-07T11:09:50.970Z,11.38
2022-09-07T11:12:27.916Z,16.73
2022-09-07T11:15:15.107Z,8.52
2022-09-07T11:17:55.135Z,10.23
2022-09-07T11:20:27.043Z,12.95
2022-09-07T11:23:12.210Z,9.98
2022-09-07T11:25:54.165Z,8.38
2022-09-07T11:28:26.345Z,8.77
2022-09-07T11:31:00.558Z,7.60
2022-09-07T11:33:36.481Z,8.95
2022-09-07T11:36:13.205Z,6.93
2022-09-07T11:38:57.635Z,6.53
2022-09-07T11:41:29.549Z,6.38
2022-09-07T11:44:02.688Z,8.38
2022-09-07T11:46:38.267Z,7.20
2022-09-07T11:49:13.163Z,9.07
2022-09-07T11:51:46.534Z,6.88
2022-09-07T11:54:22.651Z,8.95
2022-09-07T11:57:08.407Z,11.48
2022-09-07T11:59:38.565Z,7.25
2022-09-07T12:02:18.657Z,8.00
2022-09-07T12:05:06.511Z,9.57
2022-09-07T12:07:36.372Z,12.85
2022-09-07T12:10:06.918Z,12.52
2022-09-07T12:12:43.855Z,10.60
2022-09-07T12:15:32.989Z,7.07
2022-09-07T12:18:24.513Z,10.90
2022-09-07T12:20:52.075Z,6.93
2022-09-07T12:23:25.508Z,9.05
2022-09-07T12:26:34.323Z,9.40
2022-09-07T12:29:01.766Z,6.35
2022-09-07T12:31:57.144Z,7.30
2022-09-07T12:34:31.402Z,12.27
2022-09-07T12:37:03.627Z,8.20
2022-09-07T12:39:35.139Z,7.88
2022-09-07T12:45:30.090Z,11.88
2022-09-07T12:47:59.866Z,9.10
2022-09-07T12:50:40.157Z,8.57
2022-09-07T12:53:13.823Z,8.00
2022-09-07T12:59:16.061Z,6.38
2022-09-07T13:02:07.728Z,6.45
2022-09-07T13:04:46.969Z,11.57
2022-09-07T13:07:19.387Z,5.85
2022-09-07T13:10:36.288Z,8.23
2022-09-07T13:13:14.883Z,10.48
2022-09-07T13:15:51.355Z,6.68
2022-09-07T13:18:30.366Z,7.65
2022-09-07T13:21:09.774Z,5.22
2022-09-07T13:23:38.133Z,5.10
2022-09-07T13:26:12.421Z,17.70
2022-09-07T13:28:56.424Z,10.52
2022-09-07T13:31:38.827Z,6.90
2022-09-07T13:34:33.833Z,7.07
2022-09-07T13:37:03.301Z,13.30
2022-09-07T13:39:45.641Z,8.75
2022-09-07T13:42:22.643Z,7.88
2022-09-07T13:44:55.719Z,8.73
2022-09-07T13:47:40.393Z,6.00
2022-09-07T13:50:22.264Z,15.13
2022-09-07T13:53:14.038Z,10.80
2022-09-07T13:55:51.667Z,5.35
2022-09-07T13:58:39.689Z,5.70
2022-09-07T14:01:13.054Z,7.93
2022-09-07T14:03:51.743Z,8.80
2022-09-07T14:06:21.733Z,9.77
2022-09-07T14:08:54.379Z,10.68
2022-09-07T14:11:29.386Z,6.40
2022-09-07T14:14:11.673Z,10.18
2022-09-07T14:16:39.325Z,7.63
2022-09-07T14:19:18.827Z,11.73
2022-09-07T14:21:56.887Z,8.32
2022-09-07T14:24:31.105Z,5.95
2022-09-07T14:26:58.713Z,11.93
2022-09-07T14:29:32.219Z,6.30
2022-09-07T14:32:02.059Z,9.80
2022-09-07T14:34:37.635Z,6.50
2022-09-07T14:37:12.469Z,8.38
2022-09-07T14:39:42.621Z,5.25
2022-09-07T14:42:15.228Z,12.07
2022-09-07T14:44:45.638Z,8.52
2022-09-07T14:47:29.188Z,9.40
2022-09-07T14:50:05.206Z,7.03
2022-09-07T14:52:43.093Z,8.82
2022-09-07T14:55:28.536Z,6.68
2022-09-07T14:58:25.513Z,8.05
2022-09-07T15:03:56.845Z,7.18
2022-09-07T15:09:39.751Z,7.40
2022-09-07T15:12:38.852Z,7.90
2022-09-07T15:15:27.375Z,11.73
2022-09-07T15:18:02.865Z,9.63
2022-09-07T15:20:44.409Z,7.70
2022-09-07T15:23:14.277Z,7.15
2022-09-07T15:25:49.825Z,6.43
2022-09-07T15:34:12.889Z,8.75
2022-09-07T15:36:42.796Z,9.20
2022-09-07T15:39:36.204Z,6.97
2022-09-07T15:44:54.837Z,7.75
2022-09-07T15:50:11.964Z,6.68
2022-09-07T15:52:41.720Z,3.95
2022-09-07T15:55:09.346Z,6.25
2022-09-07T15:58:02.270Z,7.60
2022-09-07T16:00:23.712Z,6.10
2022-09-07T16:03:08.166Z,5.93
2022-09-07T16:05:35.975Z,5.10
2022-09-07T16:10:54.067Z,9.50
2022-09-07T16:13:24.525Z,7.05
2022-09-07T16:15:52.314Z,7.05
2022-09-07T16:18:19.741Z,7.28
2022-09-07T16:20:47.520Z,8.18
2022-09-07T16:23:19.199Z,8.05
2022-09-07T16:25:57.966Z,6.45
2022-09-07T16:28:25.823Z,7.38
2022-09-07T16:30:52.891Z,11.40
2022-09-07T16:33:19.986Z,15.15
2022-09-07T16:35:59.602Z,11.43
2022-09-07T16:38:47.396Z,6.47
2022-09-07T16:41:23.310Z,6.03
2022-09-07T16:43:50.773Z,5.60
2022-09-07T16:46:20.960Z,8.82
2022-09-07T16:48:48.550Z,5.45
2022-09-07T16:51:22.790Z,7.13
2022-09-07T16:53:52.983Z,7.07
2022-09-07T16:56:24.513Z,4.78
2022-09-07T16:58:56.733Z,4.35
2022-09-07T17:01:29.454Z,8.32
2022-09-07T17:03:57.064Z,7.88
2022-09-07T17:06:26.876Z,6.20
2022-09-07T17:08:55.106Z,7.88
2022-09-07T17:11:29.508Z,8.13
2022-09-07T17:13:59.297Z,7.88
2022-09-07T17:16:30.229Z,6.07
2022-09-07T17:21:48.329Z,6.78
2022-09-07T17:24:19.780Z,6.22
2022-09-07T17:26:47.600Z,4.75
2022-09-07T17:29:14.700Z,5.63
2022-09-07T17:34:31.709Z,5.18
2022-09-07T17:37:01.731Z,5.03
2022-09-07T17:39:29.406Z,6.28
2022-09-07T17:41:56.877Z,5.93
2022-09-07T17:44:23.916Z,5.28
2022-09-07T17:46:51.803Z,6.05
2022-09-07T17:49:19.230Z,6.95
2022-09-07T17:51:46.793Z,5.88
2022-09-07T17:54:16.815Z,4.78
2022-09-07T17:56:45.135Z,5.38
2022-09-07T18:02:01.136Z,5.22
2022-09-07T18:04:29.171Z,4.93
2022-09-07T18:06:56.677Z,7.80
2022-09-07T18:09:24.734Z,8.27
2022-09-07T18:11:52.408Z,5.93
2022-09-07T18:14:20.261Z,8.38
2022-09-07T18:16:50.130Z,6.40
2022-09-07T18:19:18.636Z,9.38
2022-09-07T18:21:48.185Z,6.93
2022-09-07T18:24:22.574Z,7.63
2022-09-07T18:26:52.778Z,6.22
2022-09-07T18:29:33.699Z,6.80
2022-09-07T18:32:08.922Z,10.18
2022-09-07T18:34:40.557Z,6.45
2022-09-07T18:37:08.930Z,12.32
2022-09-07T18:39:37.023Z,5.38
2022-09-07T18:42:05.036Z,8.20
2022-09-07T18:47:28.406Z,11.85
2022-09-07T18:49:57.395Z,8.63
2022-09-07T18:55:14.137Z,9.55
2022-09-07T18:57:42.582Z,9.48
2022-09-07T19:00:12.876Z,9.93
2022-09-07T19:02:41.287Z,11.00
2022-09-07T19:08:00.000Z,5.38
2022-09-07T19:10:27.969Z,9.23
2022-09-07T19:12:56.376Z,10.35
2022-09-07T19:15:24.179Z,7.63
2022-09-07T19:17:51.983Z,12.00
2022-09-07T19:20:19.381Z,6.68
2022-09-07T19:22:46.844Z,9.23
2022-09-07T19:25:14.525Z,8.35
2022-09-07T19:27:42.172Z,8.45
2022-09-07T19:30:12.397Z,9.07
2022-09-07T19:32:40.831Z,10.32
2022-09-07T19:35:08.523Z,15.45
2022-09-07T19:37:40.959Z,11.82
2022-09-07T19:40:11.975Z,10.27
2022-09-07T19:42:41.098Z,12.35
2022-09-07T19:45:09.020Z,11.75
2022-09-07T19:47:39.136Z,9.23
2022-09-07T19:50:06.902Z,10.88
2022-09-07T19:52:36.695Z,9.13
2022-09-07T19:55:04.809Z,8.20
2022-09-07T19:57:32.773Z,9.07
2022-09-07T20:00:00.672Z,9.85
2022-09-07T20:02:28.325Z,10.80
2022-09-07T20:04:56.069Z,9.55
2022-09-07T20:07:23.855Z,12.73
2022-09-07T20:09:54.123Z,12.27
2022-09-07T20:12:23.695Z,11.93
2022-09-07T20:14:51.126Z,6.70
2022-09-07T20:17:18.756Z,11.05
2022-09-07T20:19:46.049Z,8.55
2022-09-07T20:22:13.395Z,9.45
2022-09-07T20:24:41.170Z,9.57
2022-09-07T20:27:08.739Z,8.05
2022-09-07T20:29:36.286Z,11.57
2022-09-07T20:32:06.189Z,9.75
2022-09-07T20:34:33.807Z,10.80
2022-09-07T20:37:01.735Z,11.80
2022-09-07T20:39:29.252Z,12.07
2022-09-07T20:41:56.321Z,10.60
2022-09-07T20:44:23.497Z,9.73
2022-09-07T20:46:53.735Z,10.73
2022-09-07T20:49:21.517Z,13.90
2022-09-07T20:51:48.525Z,9.43
2022-09-07T20:54:18.262Z,10.23
2022-09-07T20:56:45.327Z,11.60
2022-09-07T20:59:12.702Z,10.45
2022-09-07T21:01:40.413Z,10.73
2022-09-07T21:04:07.482Z,12.63
2022-09-07T21:06:34.984Z,12.45
2022-09-07T21:09:05.194Z,10.43
2022-09-07T21:11:34.502Z,14.50
2022-09-07T21:14:06.774Z,16.23
2022-09-07T21:16:35.262Z,10.85
2022-09-07T21:19:06.105Z,12.38
2022-09-07T21:21:42.227Z,11.27
2022-09-07T21:24:19.947Z,11.57
2022-09-07T21:26:48.412Z,12.32
2022-09-07T21:29:24.244Z,8.95
2022-09-07T21:31:55.059Z,12.02
2022-09-07T21:34:23.419Z,12.80
2022-09-07T21:36:51.309Z,9.75
2022-09-07T21:39:18.787Z,12.63
2022-09-07T21:41:46.287Z,10.20
2022-09-07T21:44:18.219Z,11.88
2022-09-07T21:46:45.372Z,9.63
2022-09-07T21:49:12.701Z,14.13
2022-09-07T21:51:42.201Z,11.00
2022-09-07T21:54:09.650Z,16.95
2022-09-07T21:56:36.903Z,11.70
2022-09-07T21:59:08.762Z,13.50
2022-09-07T22:01:35.710Z,15.95
2022-09-07T22:04:04.812Z,11.25
2022-09-07T22:06:35.201Z,15.52
2022-09-07T22:09:03.725Z,17.40
2022-09-07T22:11:31.533Z,18.33
2022-09-07T22:14:01.621Z,12.60
2022-09-07T22:16:29.313Z,15.93
2022-09-07T22:18:58.707Z,13.38
2022-09-07T22:21:28.018Z,14.48
2022-09-07T22:23:57.564Z,17.30
2022-09-07T22:26:27.464Z,13.38
2022-09-07T22:28:55.726Z,14.48
2022-09-07T22:31:28.807Z,16.70
2022-09-07T22:33:57.219Z,14.68
2022-09-07T22:36:27.220Z,22.45
2022-09-07T22:38:56.624Z,15.50
2022-09-07T22:41:27.164Z,28.20
2022-09-07T22:43:54.922Z,17.08
2022-09-07T22:46:23.464Z,17.05
2022-09-07T22:48:51.075Z,13.52
2022-09-07T22:51:17.962Z,13.77
2022-09-07T22:53:44.999Z,14.02
2022-09-07T22:56:22.181Z,14.18
2022-09-07T22:58:51.981Z,14.07
2022-09-07T23:01:19.641Z,14.77
2022-09-07T23:03:47.019Z,14.38
2022-09-07T23:06:23.005Z,14.75
2022-09-07T23:08:51.701Z,17.90
2022-09-07T23:11:22.938Z,15.50
2022-09-07T23:13:52.749Z,16.30
2022-09-07T23:16:21.047Z,14.70
2022-09-07T23:18:48.390Z,12.88
2022-09-07T23:24:46.983Z,15.02
2022-09-07T23:27:15.189Z,14.95
2022-09-07T23:29:45.053Z,19.75
2022-09-07T23:32:12.694Z,13.25
2022-09-07T23:34:41.030Z,14.07
2022-09-07T23:37:09.858Z,19.00
2022-09-07T23:39:37.832Z,18.20
2022-09-07T23:42:05.934Z,14.85
2022-09-07T23:44:33.242Z,19.88
2022-09-07T23:47:00.014Z,19.50
2022-09-07T23:49:27.691Z,19.58
2022-09-07T23:51:56.410Z,18.02
2022-09-07T23:54:24.824Z,24.58
2022-09-07T23:56:52.534Z,20.33
2022-09-07T23:59:20.215Z,23.90
